Time;durP1;ratioP1;P1;durP2;ratioP2;P2;SDS_P1;SDS_P2;PMS_P1;PMS_P2;Temp;Humidity;BMP_temperature;BMP_pressure;BME280_temperature;BME280_humidity;BME280_pressure;Samples;Min_cycle;Max_cycle;Signal;HPM_P1;HPM_P2
2022/08/30 00:03:19;;;;;;;10.53;8.55;;;;;;;17.48;88.97;95780.38;1701442;84;20956;-70
2022/08/30 00:05:46;;;;;;;22.45;9.33;;;;;;;17.46;88.27;95773.80;1701366;84;20999;-70
2022/08/30 00:08:13;;;;;;;17.12;8.50;;;;;;;17.55;89.03;95780.52;1701521;84;21023;-70
2022/08/30 00:10:42;;;;;;;11.50;8.75;;;;;;;17.60;89.11;95775.85;1701416;84;21031;-70
2022/08/30 00:13:11;;;;;;;12.28;9.05;;;;;;;17.62;89.00;95775.80;1701699;84;21022;-70
2022/08/30 00:15:40;;;;;;;11.20;8.53;;;;;;;17.71;89.08;95774.94;1701169;84;21004;-70
2022/08/30 00:18:07;;;;;;;17.17;8.73;;;;;;;17.69;87.89;95779.94;1701270;84;20991;-70
2022/08/30 00:20:37;;;;;;;11.33;8.75;;;;;;;17.58;87.54;95777.71;1701444;84;21024;-70
2022/08/30 00:23:05;;;;;;;13.65;9.43;;;;;;;17.59;88.32;95782.58;1701306;84;21015;-70
2022/08/30 00:25:32;;;;;;;13.50;8.35;;;;;;;17.65;88.44;95781.86;1701105;84;21031;-70
2022/08/30 00:27:59;;;;;;;13.68;8.60;;;;;;;17.59;87.76;95786.58;1701385;84;21469;-70
2022/08/30 00:30:25;;;;;;;15.95;8.95;;;;;;;17.50;87.62;95783.85;1725213;83;21022;-70
2022/08/30 00:32:53;;;;;;;13.22;7.97;;;;;;;17.40;87.64;95790.52;1732149;83;21042;-70
2022/08/30 00:35:20;;;;;;;13.75;8.10;;;;;;;17.35;87.48;95792.51;1732155;83;21050;-70
2022/08/30 00:37:49;;;;;;;18.27;9.13;;;;;;;17.32;88.20;95791.31;1732242;83;21480;-70
2022/08/30 00:40:19;;;;;;;15.40;9.05;;;;;;;17.29;88.10;95792.30;1732268;83;21074;-70
2022/08/30 00:42:47;;;;;;;15.32;8.30;;;;;;;17.25;88.67;95792.88;1732128;83;20987;-71
2022/08/30 00:45:23;;;;;;;15.35;8.40;;;;;;;17.25;88.58;95790.22;1732269;83;21023;-70
2022/08/30 00:47:50;;;;;;;13.88;7.60;;;;;;;17.24;88.38;95787.63;1731630;83;21039;-70
2022/08/30 00:50:21;;;;;;;14.65;8.70;;;;;;;17.26;88.63;95790.64;1732112;83;21047;-70
2022/08/30 00:52:52;;;;;;;13.98;7.95;;;;;;;17.35;89.11;95795.17;1732265;82;21030;-70
2022/08/30 00:55:19;;;;;;;15.40;7.95;;;;;;;17.40;89.02;95795.38;1732164;83;21031;-70
2022/08/30 00:57:50;;;;;;;20.52;8.80;;;;;;;17.33;88.24;95791.23;1731966;83;21090;-70
2022/08/30 01:00:17;;;;;;;13.22;8.00;;;;;;;17.27;88.69;95791.50;1732259;82;21506;-70
2022/08/30 01:02:44;;;;;;;10.60;7.50;;;;;;;17.25;89.23;95789.36;1732087;82;21033;-70
2022/08/30 01:05:12;;;;;;;11.25;8.23;;;;;;;17.20;88.69;95787.34;1732080;83;21002;-70
2022/08/30 01:07:40;;;;;;;14.18;8.18;;;;;;;17.13;89.16;95781.86;1732307;83;21059;-71
2022/08/30 01:10:10;;;;;;;15.13;8.13;;;;;;;17.14;89.74;95775.61;1731986;83;21031;-70
2022/08/30 01:12:39;;;;;;;11.53;7.83;;;;;;;17.13;88.86;95772.53;1732266;83;21007;-70
2022/08/30 01:15:09;;;;;;;12.13;7.45;;;;;;;17.15;89.11;95776.00;1732215;83;21042;-70
2022/08/30 01:17:36;;;;;;;15.43;7.87;;;;;;;17.17;88.55;95774.15;1731827;83;21051;-70
2022/08/30 01:20:12;;;;;;;19.40;8.73;;;;;;;17.16;88.37;95774.62;1731989;83;21039;-70
2022/08/30 01:22:50;;;;;;;16.17;8.23;;;;;;;17.14;88.26;95770.28;1727962;83;21517;-70
2022/08/30 01:25:24;;;;;;;14.38;8.18;;;;;;;17.07;88.17;95768.33;1731349;83;21035;-70
2022/08/30 01:27:56;;;;;;;11.95;7.72;;;;;;;17.03;88.01;95778.26;1732154;82;21058;-70
2022/08/30 01:30:24;;;;;;;12.73;8.50;;;;;;;17.00;88.68;95776.17;1712123;83;21018;-70
2022/08/30 01:32:59;;;;;;;12.33;7.92;;;;;;;16.99;88.74;95776.64;1701059;84;21011;-70
2022/08/30 01:35:26;;;;;;;15.85;7.95;;;;;;;16.97;88.28;95780.30;1701340;84;21035;-70
2022/08/30 01:37:53;;;;;;;9.58;7.58;;;;;;;16.97;88.42;95781.62;1701009;84;21039;-70
2022/08/30 01:40:21;;;;;;;14.50;8.58;;;;;;;16.98;88.50;95779.35;1700860;84;21005;-70
2022/08/30 01:42:48;;;;;;;10.65;8.10;;;;;;;16.96;88.33;95779.88;1701222;84;20985;-70
2022/08/30 01:45:15;;;;;;;12.88;7.95;;;;;;;16.92;88.04;95782.28;1700910;84;20988;-70
2022/08/30 01:47:42;;;;;;;12.45;8.43;;;;;;;16.87;88.86;95783.33;1701067;84;21027;-70
2022/08/30 01:50:10;;;;;;;15.38;8.33;;;;;;;16.85;88.46;95790.51;1701088;84;21059;-70
2022/08/30 01:52:38;;;;;;;15.38;8.08;;;;;;;16.84;88.99;95787.92;1701233;84;21502;-70
2022/08/30 01:55:06;;;;;;;11.00;7.12;;;;;;;16.82;89.53;95787.11;1701419;84;21095;-70
2022/08/30 01:57:33;;;;;;;11.12;7.70;;;;;;;16.87;89.68;95775.33;1701303;84;21147;-70
2022/08/30 02:00:00;;;;;;;14.50;8.43;;;;;;;16.95;89.74;95777.69;1700974;84;21107;-70
2022/08/30 02:02:29;;;;;;;11.80;7.90;;;;;;;16.95;89.33;95772.82;1701323;84;21007;-70
2022/08/30 02:04:56;;;;;;;15.32;7.70;;;;;;;16.91;88.36;95775.20;1701318;84;21055;-70
2022/08/30 02:07:24;;;;;;;11.20;7.75;;;;;;;16.78;88.52;95770.83;1701364;84;21027;-70
2022/08/30 02:09:52;;;;;;;11.38;8.20;;;;;;;16.72;88.60;95775.05;1701298;84;21003;-70
2022/08/30 02:12:19;;;;;;;9.53;7.87;;;;;;;16.68;89.06;95775.62;1701406;84;21521;-70
2022/08/30 02:14:46;;;;;;;9.50;7.72;;;;;;;16.65;88.61;95777.08;1701199;84;20999;-70
2022/08/30 02:17:15;;;;;;;12.03;7.70;;;;;;;16.59;88.91;95780.00;1701278;84;21079;-70
2022/08/30 02:19:42;;;;;;;12.68;7.75;;;;;;;16.55;88.72;95780.56;1701113;84;21028;-70
2022/08/30 02:22:09;;;;;;;11.15;7.50;;;;;;;16.47;88.53;95780.00;1700697;84;21529;-70
2022/08/30 02:24:36;;;;;;;9.48;7.53;;;;;;;16.48;88.68;95776.87;1701338;84;21039;-70
2022/08/30 02:27:05;;;;;;;13.45;7.33;;;;;;;16.46;88.54;95778.75;1701007;84;21043;-70
2022/08/30 02:29:32;;;;;;;8.63;7.53;;;;;;;16.43;88.42;95772.61;1701232;84;21012;-70
2022/08/30 02:31:59;;;;;;;11.30;7.60;;;;;;;16.38;88.09;95771.06;1701176;84;21008;-70
2022/08/30 02:34:26;;;;;;;11.70;7.50;;;;;;;16.30;88.36;95768.66;1700831;84;21039;-71
2022/08/30 02:36:52;;;;;;;11.90;7.53;;;;;;;16.29;88.80;95772.73;1701155;84;21125;-70
2022/08/30 02:39:19;;;;;;;13.58;7.25;;;;;;;16.31;89.15;95766.89;1701244;84;21023;-69
2022/08/30 02:41:46;;;;;;;11.05;7.10;;;;;;;16.27;88.54;95770.12;1700679;84;21052;-70
2022/08/30 02:44:14;;;;;;;12.75;7.10;;;;;;;16.22;88.96;95768.95;1701287;84;20960;-70
2022/08/30 02:46:41;;;;;;;12.93;7.55;;;;;;;16.25;88.86;95768.44;1701220;84;21019;-70
2022/08/30 02:49:09;;;;;;;12.85;7.80;;;;;;;16.29;88.60;95763.41;1700943;84;21064;-70
2022/08/30 02:51:36;;;;;;;12.58;7.60;;;;;;;16.31;89.27;95771.75;1701381;84;21013;-70
2022/08/30 02:54:03;;;;;;;16.10;9.33;;;;;;;16.42;89.58;95772.19;1701315;84;21027;-70
2022/08/30 02:56:29;;;;;;;12.85;7.40;;;;;;;16.53;89.36;95773.13;1700983;84;21003;-70
2022/08/30 02:58:56;;;;;;;13.70;7.17;;;;;;;16.49;88.44;95766.64;1700891;84;21081;-70
2022/08/30 03:01:22;;;;;;;12.05;7.50;;;;;;;16.43;87.95;95773.94;1701395;84;21046;-70
2022/08/30 03:03:49;;;;;;;15.05;7.22;;;;;;;16.36;88.58;95764.45;1700955;84;20964;-70
2022/08/30 03:06:17;;;;;;;11.12;7.87;;;;;;;16.32;88.67;95769.95;1701456;84;21052;-70
2022/08/30 03:08:44;;;;;;;8.00;7.03;;;;;;;16.27;88.74;95771.45;1701533;84;21095;-70
2022/08/30 03:11:12;;;;;;;11.43;7.37;;;;;;;16.23;88.37;95780.50;1701354;84;21488;-70
2022/08/30 03:13:39;;;;;;;13.88;7.10;;;;;;;16.16;87.96;95784.31;1701165;84;20959;-70
2022/08/30 03:16:06;;;;;;;14.45;7.67;;;;;;;16.09;88.54;95781.47;1701032;84;21525;-70
2022/08/30 03:18:33;;;;;;;11.60;6.80;;;;;;;16.14;88.56;95780.36;1700760;84;21501;-70
2022/08/30 03:21:00;;;;;;;12.60;7.22;;;;;;;16.15;88.71;95774.13;1700848;84;21085;-70
2022/08/30 03:23:27;;;;;;;8.55;7.45;;;;;;;16.06;87.81;95776.27;1701054;84;20983;-70
2022/08/30 03:25:53;;;;;;;11.25;7.00;;;;;;;16.00;88.81;95781.33;1701024;84;21027;-70
2022/08/30 03:28:20;;;;;;;15.48;7.95;;;;;;;15.98;88.86;95783.20;1701349;84;21011;-70
2022/08/30 03:30:47;;;;;;;10.93;6.67;;;;;;;15.95;89.06;95785.52;1700729;83;21028;-70
2022/08/30 03:33:14;;;;;;;11.83;7.10;;;;;;;15.91;88.41;95784.34;1700993;84;21505;-70
2022/08/30 03:35:41;;;;;;;9.55;6.55;;;;;;;15.85;88.25;95792.09;1701014;84;20973;-70
2022/08/30 03:38:08;;;;;;;8.13;6.50;;;;;;;15.87;88.57;95787.56;1700762;84;21060;-70
2022/08/30 03:40:35;;;;;;;8.70;7.17;;;;;;;15.82;88.49;95791.32;1701069;84;21039;-70
2022/08/30 03:43:02;;;;;;;17.62;7.97;;;;;;;15.77;88.72;95792.38;1701102;84;21027;-70
2022/08/30 03:45:29;;;;;;;13.45;6.70;;;;;;;15.77;88.94;95793.70;1700996;84;21510;-70
2022/08/30 03:47:56;;;;;;;13.25;7.03;;;;;;;15.82;89.11;95787.33;1679381;84;21016;-68
2022/08/30 03:50:23;;;;;;;12.33;6.35;;;;;;;15.84;89.08;95795.66;1701196;84;21047;-70
2022/08/30 03:52:50;;;;;;;12.40;7.17;;;;;;;15.76;88.24;95793.28;1700832;84;21011;-70
2022/08/30 03:55:17;;;;;;;19.27;7.20;;;;;;;15.69;88.76;95793.52;1700893;84;21039;-70
2022/08/30 03:57:44;;;;;;;11.40;6.35;;;;;;;15.64;88.49;95800.33;1700991;84;21015;-70
2022/08/30 04:00:14;;;;;;;10.98;8.40;;;;;;;15.66;88.40;95805.61;1700726;84;21521;-70
2022/08/30 04:02:41;;;;;;;20.08;8.05;;;;;;;15.62;88.31;95802.63;1701124;84;21039;-70
2022/08/30 04:05:10;;;;;;;11.15;7.00;;;;;;;15.62;89.28;95799.97;1701070;84;20986;-70
2022/08/30 04:07:36;;;;;;;12.78;7.03;;;;;;;15.69;89.62;95801.50;1701142;84;21059;-70
2022/08/30 04:10:07;;;;;;;12.30;7.03;;;;;;;15.83;89.73;95802.39;1701093;84;21106;-70
2022/08/30 04:12:35;;;;;;;10.23;7.45;;;;;;;15.84;88.70;95801.45;1701054;84;21059;-70
2022/08/30 04:15:02;;;;;;;10.15;7.78;;;;;;;15.82;88.87;95809.48;1701172;84;20996;-70
2022/08/30 04:17:30;;;;;;;11.20;6.83;;;;;;;15.88;89.03;95805.75;1701097;84;20996;-70
2022/08/30 04:19:56;;;;;;;8.43;6.87;;;;;;;15.87;88.19;95803.53;1701110;84;21067;-70
2022/08/30 04:22:23;;;;;;;10.95;7.08;;;;;;;15.90;88.15;95805.20;1701169;84;21051;-70
2022/08/30 04:24:50;;;;;;;7.92;6.42;;;;;;;15.82;87.68;95804.16;1701441;84;20984;-70
2022/08/30 04:27:19;;;;;;;8.75;6.72;;;;;;;15.76;88.22;95808.37;1701120;84;20992;-70
2022/08/30 04:29:46;;;;;;;12.07;6.85;;;;;;;15.82;89.11;95805.48;1701682;83;21023;-70
2022/08/30 04:32:14;;;;;;;10.45;6.60;;;;;;;15.92;88.68;95808.69;1732121;83;21505;-70
2022/08/30 04:34:40;;;;;;;10.40;7.25;;;;;;;15.90;87.93;95816.75;1731659;83;21019;-70
2022/08/30 04:37:07;;;;;;;9.58;7.10;;;;;;;15.91;88.37;95812.28;1732146;83;21075;-70
2022/08/30 04:39:34;;;;;;;11.30;6.92;;;;;;;15.93;87.97;95809.98;1732072;83;21075;-70
2022/08/30 04:42:02;;;;;;;12.73;7.70;;;;;;;15.93;87.82;95814.44;1731888;83;21462;-70
2022/08/30 04:44:30;;;;;;;12.37;7.08;;;;;;;15.90;89.12;95811.86;1732110;83;21014;-70
2022/08/30 04:46:57;;;;;;;7.97;7.03;;;;;;;15.88;88.25;95819.05;1732240;83;20972;-70
2022/08/30 04:49:24;;;;;;;15.58;7.80;;;;;;;15.90;88.23;95817.19;1731604;83;21103;-70
2022/08/30 04:51:51;;;;;;;13.88;6.83;;;;;;;15.96;88.15;95812.98;1732277;83;20998;-70
2022/08/30 04:54:18;;;;;;;8.18;6.90;;;;;;;15.98;88.13;95819.13;1732181;83;21027;-70
2022/08/30 04:56:45;;;;;;;6.75;6.15;;;;;;;15.98;88.43;95823.98;1732180;83;20999;-70
2022/08/30 04:59:12;;;;;;;8.48;6.40;;;;;;;16.11;89.22;95818.22;1732383;83;20979;-70
2022/08/30 05:01:39;;;;;;;9.73;6.37;;;;;;;16.30;89.15;95821.05;1732001;83;21035;-70
2022/08/30 05:04:06;;;;;;;9.83;7.03;;;;;;;16.38;88.22;95822.98;1731993;83;20984;-70
2022/08/30 05:06:33;;;;;;;8.18;6.47;;;;;;;16.44;88.37;95825.41;1732068;83;21038;-70
2022/08/30 05:09:00;;;;;;;8.10;6.85;;;;;;;16.61;88.97;95824.30;1731700;83;21601;-70
2022/08/30 05:11:27;;;;;;;12.00;7.35;;;;;;;16.77;88.91;95821.03;1732237;83;21449;-70
2022/08/30 05:13:54;;;;;;;7.80;7.10;;;;;;;16.99;89.07;95821.09;1731991;83;21035;-70
2022/08/30 05:16:21;;;;;;;8.93;7.20;;;;;;;17.19;88.79;95815.81;1732146;83;21063;-70
2022/08/30 05:18:49;;;;;;;11.15;6.87;;;;;;;17.36;88.54;95815.56;1704759;83;21055;-70
2022/08/30 05:21:21;;;;;;;9.83;6.50;;;;;;;17.57;88.24;95813.34;1704823;83;21051;-70
2022/08/30 05:23:49;;;;;;;7.92;7.12;;;;;;;17.75;87.57;95819.69;1731287;83;21042;-70
2022/08/30 05:26:20;;;;;;;8.68;6.78;;;;;;;17.90;87.28;95820.86;1731880;83;21007;-70
2022/08/30 05:28:48;;;;;;;8.68;7.28;;;;;;;18.06;87.35;95822.38;1732128;83;21480;-70
2022/08/30 05:31:22;;;;;;;7.92;6.95;;;;;;;18.22;86.98;95820.77;1731593;83;21528;-70
2022/08/30 05:33:50;;;;;;;8.28;7.47;;;;;;;18.41;87.18;95820.78;1732020;83;21066;-70
2022/08/30 05:36:22;;;;;;;9.55;8.05;;;;;;;18.55;86.17;95821.03;1732101;83;21022;-70
2022/08/30 05:38:49;;;;;;;7.65;6.83;;;;;;;18.69;86.08;95820.37;1732131;83;21544;-70
2022/08/30 05:41:20;;;;;;;10.13;7.42;;;;;;;18.82;85.63;95823.36;1732208;83;20972;-70
2022/08/30 05:43:47;;;;;;;9.25;7.80;;;;;;;18.96;85.76;95818.70;1732009;82;21504;-70
2022/08/30 05:46:18;;;;;;;8.58;7.45;;;;;;;19.13;85.52;95816.09;1732276;83;21480;-70
2022/08/30 05:48:46;;;;;;;9.38;8.03;;;;;;;19.26;84.50;95819.02;1732003;83;21027;-69
2022/08/30 05:51:17;;;;;;;13.50;8.08;;;;;;;19.39;84.74;95821.95;1732094;83;20991;-70
2022/08/30 05:53:45;;;;;;;8.73;7.80;;;;;;;19.54;84.23;95817.17;1732429;83;21492;-70
2022/08/30 05:56:15;;;;;;;11.33;7.80;;;;;;;19.65;84.12;95807.25;1732658;83;21007;-70
2022/08/30 05:58:43;;;;;;;11.48;7.80;;;;;;;19.80;83.64;95813.19;1732042;83;21043;-70
2022/08/30 06:01:27;;;;;;;12.23;8.70;;;;;;;19.94;83.83;95812.49;1732378;83;21070;-70
2022/08/30 06:03:55;;;;;;;14.65;9.43;;;;;;;20.05;82.71;95809.24;1732060;83;21035;-70
2022/08/30 06:06:23;;;;;;;12.18;10.80;;;;;;;20.07;82.63;95812.23;1732024;83;21034;-70
2022/08/30 06:08:50;;;;;;;17.55;10.08;;;;;;;20.15;82.34;95812.31;1732102;83;21019;-71
2022/08/30 06:11:20;;;;;;;12.63;10.50;;;;;;;20.19;82.54;95808.53;1731836;83;21034;-70
2022/08/30 06:13:48;;;;;;;14.65;10.63;;;;;;;20.28;82.70;95815.58;1731909;82;21146;-70
2022/08/30 06:16:18;;;;;;;14.30;11.35;;;;;;;20.29;82.55;95809.77;1732176;83;21485;-71
2022/08/30 06:18:45;;;;;;;13.80;10.68;;;;;;;20.36;82.23;95811.18;1732563;83;21003;-71
2022/08/30 06:21:20;;;;;;;12.28;10.82;;;;;;;20.37;81.81;95810.22;1732065;82;21048;-71
2022/08/30 06:23:47;;;;;;;14.47;10.32;;;;;;;20.38;81.86;95808.39;1730902;83;21014;-71
2022/08/30 06:26:15;;;;;;;13.85;10.90;;;;;;;20.33;81.20;95807.30;1731894;83;21062;-70
2022/08/30 06:28:42;;;;;;;14.18;10.55;;;;;;;20.31;81.47;95803.86;1732741;83;21027;-71
2022/08/30 06:31:12;;;;;;;13.20;10.30;;;;;;;20.32;81.67;95801.08;1732080;82;21066;-71
2022/08/30 06:33:41;;;;;;;18.00;11.55;;;;;;;20.41;81.08;95810.91;1732021;82;21074;-70
2022/08/30 06:36:12;;;;;;;14.20;10.65;;;;;;;20.49;81.01;95808.70;1732058;83;20983;-70
2022/08/30 06:38:40;;;;;;;12.00;9.00;;;;;;;20.49;80.54;95810.04;1732443;82;21562;-70
2022/08/30 06:41:11;;;;;;;14.63;9.23;;;;;;;20.47;80.09;95812.79;1732038;83;21568;-70
2022/08/30 06:43:38;;;;;;;12.23;9.75;;;;;;;20.44;80.00;95816.13;1731891;83;21023;-70
2022/08/30 06:46:10;;;;;;;15.43;8.35;;;;;;;20.49;80.57;95820.77;1732050;83;21066;-71
2022/08/30 06:48:37;;;;;;;10.65;8.30;;;;;;;20.61;81.06;95825.45;1732112;83;21556;-70
2022/08/30 06:51:05;;;;;;;14.65;7.80;;;;;;;20.78;81.05;95831.25;1731532;83;21031;-71
2022/08/30 06:53:33;;;;;;;13.45;7.80;;;;;;;20.99;79.96;95827.88;1732116;83;21000;-70
2022/08/30 06:56:08;;;;;;;12.88;8.28;;;;;;;21.17;78.91;95821.45;1731941;83;21019;-70
2022/08/30 06:58:37;;;;;;;11.10;7.62;;;;;;;21.26;78.92;95816.51;1732075;83;21066;-70
2022/08/30 07:01:06;;;;;;;12.43;8.30;;;;;;;21.46;79.71;95820.77;1731968;83;21099;-71
2022/08/30 07:03:36;;;;;;;12.43;8.33;;;;;;;21.63;78.81;95815.76;1732044;83;21006;-70
2022/08/30 07:06:04;;;;;;;9.23;7.28;;;;;;;21.76;79.03;95813.59;1732008;83;21021;-70
2022/08/30 07:08:30;;;;;;;11.10;7.67;;;;;;;21.81;78.08;95818.20;1731828;83;21035;-70
2022/08/30 07:10:57;;;;;;;12.15;8.00;;;;;;;21.82;78.07;95817.27;1731940;83;21014;-70
2022/08/30 07:13:24;;;;;;;15.03;9.10;;;;;;;21.86;77.55;95819.77;1731919;83;21086;-70
2022/08/30 07:15:51;;;;;;;14.87;9.93;;;;;;;21.89;77.45;95819.09;1732085;83;21030;-70
2022/08/30 07:21:14;;;;;;;12.90;9.98;;;;;;;22.04;77.91;95822.20;1732019;83;21058;-70
2022/08/30 07:23:43;;;;;;;13.15;10.40;;;;;;;22.12;77.34;95825.77;1732070;83;21039;-70
2022/08/30 07:26:14;;;;;;;17.73;10.15;;;;;;;22.21;76.73;95827.94;1731575;83;21063;-71
2022/08/30 07:28:44;;;;;;;15.20;10.70;;;;;;;22.31;77.18;95826.89;1732269;82;21504;-71
2022/08/30 07:31:14;;;;;;;12.75;10.32;;;;;;;22.42;76.91;95832.46;1723986;82;21098;-70
2022/08/30 07:33:41;;;;;;;18.67;10.65;;;;;;;22.42;76.36;95825.74;1701266;84;21099;-70
2022/08/30 07:36:08;;;;;;;12.50;10.53;;;;;;;22.48;76.12;95828.55;1679277;84;21498;-70
2022/08/30 07:38:35;;;;;;;12.70;10.05;;;;;;;22.49;76.32;95828.06;1700888;84;21063;-71
2022/08/30 07:41:04;;;;;;;12.30;9.78;;;;;;;22.52;75.49;95829.22;1701307;84;21027;-70
2022/08/30 07:43:32;;;;;;;12.50;9.00;;;;;;;22.50;73.49;95829.30;1700815;84;20984;-70
2022/08/30 07:46:06;;;;;;;13.05;9.03;;;;;;;22.46;73.58;95831.33;1701197;84;20996;-70
2022/08/30 07:48:34;;;;;;;14.33;10.43;;;;;;;22.53;74.17;95834.97;1701244;84;21584;-70
2022/08/30 07:51:03;;;;;;;17.35;10.80;;;;;;;22.59;74.65;95830.08;1700915;84;21492;-70
2022/08/30 07:53:30;;;;;;;12.43;10.23;;;;;;;22.65;74.74;95828.38;1701348;84;21019;-70
2022/08/30 07:55:58;;;;;;;18.12;10.63;;;;;;;22.69;74.10;95827.69;1701164;84;21525;-71
2022/08/30 07:58:24;;;;;;;17.85;10.32;;;;;;;22.74;73.95;95830.95;1700941;84;21039;-70
2022/08/30 08:00:52;;;;;;;11.68;9.68;;;;;;;22.78;73.57;95832.95;1718493;83;21058;-70
2022/08/30 08:03:18;;;;;;;12.65;9.95;;;;;;;22.76;72.67;95831.72;1693305;84;21497;-70
2022/08/30 08:05:45;;;;;;;10.10;9.08;;;;;;;22.79;72.88;95835.55;1688247;85;21023;-70
2022/08/30 08:08:13;;;;;;;11.22;8.95;;;;;;;22.82;73.01;95834.01;1693594;84;21012;-70
2022/08/30 08:10:41;;;;;;;17.57;8.33;;;;;;;22.80;71.19;95836.41;1693422;85;21024;-70
2022/08/30 08:13:08;;;;;;;10.08;8.25;;;;;;;22.78;72.12;95832.49;1701351;84;21529;-70
2022/08/30 08:15:36;;;;;;;16.73;8.05;;;;;;;22.85;72.39;95834.30;1701393;84;21019;-70
2022/08/30 08:18:03;;;;;;;10.60;7.90;;;;;;;22.96;73.23;95840.36;1701516;84;21027;-69
2022/08/30 08:20:31;;;;;;;7.47;6.65;;;;;;;23.08;73.30;95839.13;1701012;84;21561;-70
2022/08/30 08:22:58;;;;;;;7.47;6.03;;;;;;;23.21;72.10;95829.77;1701406;84;21501;-70
2022/08/30 08:25:25;;;;;;;8.78;5.58;;;;;;;23.35;71.47;95831.55;1701449;84;21042;-70
2022/08/30 08:27:52;;;;;;;9.08;6.87;;;;;;;23.47;66.80;95839.31;1701347;84;21043;-71
2022/08/30 08:30:21;;;;;;;8.45;7.50;;;;;;;23.63;68.93;95831.94;1701356;84;21011;-70
2022/08/30 08:32:49;;;;;;;8.10;7.20;;;;;;;23.81;68.69;95838.44;1701080;83;21529;-70
2022/08/30 08:35:17;;;;;;;12.70;7.47;;;;;;;23.97;65.34;95829.71;1701243;84;21058;-70
2022/08/30 08:37:44;;;;;;;7.42;6.80;;;;;;;24.18;67.71;95837.66;1701387;84;21003;-70
2022/08/30 08:40:17;;;;;;;10.63;7.47;;;;;;;24.30;64.56;95831.92;1700962;84;21063;-70
2022/08/30 08:43:00;;;;;;;9.35;7.42;;;;;;;24.46;65.35;95831.73;1701420;84;20995;-70
2022/08/30 08:45:54;;;;;;;8.98;7.50;;;;;;;24.58;65.27;95831.37;1701442;84;21074;-70
2022/08/30 08:48:49;;;;;;;9.10;8.20;;;;;;;24.71;65.17;95831.36;1701182;84;21037;-70
2022/08/30 08:54:13;;;;;;;8.23;7.42;;;;;;;24.96;65.02;95829.13;1701485;84;21003;-70
2022/08/30 08:56:41;;;;;;;9.80;7.92;;;;;;;25.07;64.15;95826.50;1701289;84;21083;-70
2022/08/30 08:59:10;;;;;;;10.78;8.30;;;;;;;25.11;64.47;95828.50;1701359;84;21019;-70
2022/08/30 09:01:37;;;;;;;9.48;8.48;;;;;;;25.08;64.08;95824.69;1701146;84;21067;-71
2022/08/30 09:04:09;;;;;;;12.33;8.50;;;;;;;25.08;64.52;95833.64;1701353;84;21505;-71
2022/08/30 09:06:48;;;;;;;12.13;8.70;;;;;;;25.01;64.14;95831.00;1700762;84;21107;-70
2022/08/30 09:09:19;;;;;;;17.85;8.65;;;;;;;24.99;64.34;95827.05;1701286;84;21027;-71
2022/08/30 09:11:47;;;;;;;10.10;8.13;;;;;;;24.96;64.63;95822.38;1701211;84;21514;-71
2022/08/30 09:14:21;;;;;;;13.22;8.23;;;;;;;25.02;65.37;95825.51;1701237;84;21092;-70
2022/08/30 09:16:54;;;;;;;10.65;7.58;;;;;;;25.09;64.67;95821.00;1701136;84;21143;-70
2022/08/30 09:19:47;;;;;;;12.55;8.33;;;;;;;25.13;64.23;95819.81;1701388;84;21191;-70
2022/08/30 09:22:25;;;;;;;11.28;8.10;;;;;;;25.18;64.31;95810.92;1699831;84;21086;-70
2022/08/30 09:25:00;;;;;;;9.73;7.62;;;;;;;25.26;64.00;95808.02;1700109;84;21027;-71
2022/08/30 09:27:32;;;;;;;12.78;8.30;;;;;;;25.54;63.99;95814.08;1676868;84;21585;-71
2022/08/30 09:30:24;;;;;;;10.58;7.70;;;;;;;25.75;61.84;95810.23;1700631;84;21458;-71
2022/08/30 09:33:01;;;;;;;10.58;7.05;;;;;;;25.85;61.07;95816.70;1719557;83;21019;-71
2022/08/30 09:35:42;;;;;;;7.92;7.15;;;;;;;25.96;57.76;95814.56;1731869;83;21034;-70
2022/08/30 09:38:21;;;;;;;9.33;7.70;;;;;;;26.04;59.43;95815.32;1731034;83;21043;-70
2022/08/30 09:40:53;;;;;;;10.85;7.58;;;;;;;26.25;60.11;95821.77;1732131;83;21050;-70
2022/08/30 09:43:28;;;;;;;21.73;8.20;;;;;;;26.44;60.12;95809.53;1732422;83;21159;-71
2022/08/30 09:46:03;;;;;;;7.87;6.90;;;;;;;26.51;57.81;95803.98;1731279;83;21701;-71
2022/08/30 09:48:42;;;;;;;8.15;7.35;;;;;;;26.54;58.29;95802.44;1732342;83;21517;-70
2022/08/30 09:51:15;;;;;;;9.18;7.08;;;;;;;26.75;59.26;95799.87;1732172;82;20992;-71
2022/08/30 09:54:04;;;;;;;9.70;7.62;;;;;;;26.86;58.65;95798.53;1732345;83;21035;-70
2022/08/30 09:56:56;;;;;;;10.78;7.25;;;;;;;26.96;59.06;95793.21;1724265;83;21038;-70
2022/08/30 10:00:03;;;;;;;8.83;6.67;;;;;;;27.10;56.95;95792.11;1731860;83;21569;-70
2022/08/30 10:03:05;;;;;;;10.13;7.75;;;;;;;27.34;57.19;95789.25;1732116;83;21083;-71
2022/08/30 10:05:48;;;;;;;8.53;6.75;;;;;;;27.67;57.63;95781.55;1731910;83;21031;-70
2022/08/30 10:08:49;;;;;;;7.20;6.00;;;;;;;27.86;55.25;95781.38;1732234;83;21509;-70
2022/08/30 10:11:33;;;;;;;8.40;6.00;;;;;;;27.61;51.53;95773.41;1732146;83;21548;-70
2022/08/30 10:14:25;;;;;;;10.68;5.97;;;;;;;27.52;51.83;95777.41;1732160;83;20999;-70
2022/08/30 10:17:17;;;;;;;9.68;6.25;;;;;;;27.58;51.99;95765.54;1731853;83;21098;-71
2022/08/30 10:20:04;;;;;;;8.78;7.08;;;;;;;27.57;51.49;95768.41;1731717;83;20983;-71
2022/08/30 10:22:39;;;;;;;7.40;6.37;;;;;;;27.29;50.76;95772.52;1700795;83;21034;-72
2022/08/30 10:25:43;;;;;;;7.20;5.75;;;;;;;27.07;49.73;95777.47;1723360;83;20995;-71
2022/08/30 10:28:36;;;;;;;8.20;6.17;;;;;;;26.94;51.28;95779.81;1732164;82;21525;-71
2022/08/30 10:31:08;;;;;;;7.45;5.40;;;;;;;26.67;53.53;95782.88;1732238;83;21491;-71
2022/08/30 10:33:39;;;;;;;5.78;5.28;;;;;;;26.46;53.87;95787.25;1732080;83;21049;-71
2022/08/30 10:36:10;;;;;;;6.00;5.00;;;;;;;26.28;54.00;95783.68;1705068;83;21504;-71
2022/08/30 10:38:42;;;;;;;6.15;5.55;;;;;;;26.10;54.92;95781.03;1732124;83;21086;-71
2022/08/30 10:41:27;;;;;;;6.67;6.07;;;;;;;25.89;56.47;95780.36;1731953;83;21588;-70
2022/08/30 10:44:24;;;;;;;8.20;5.80;;;;;;;25.76;57.73;95781.39;1732473;83;21291;-70
2022/08/30 10:47:23;;;;;;;6.12;5.62;;;;;;;25.68;57.71;95779.28;1731749;83;21533;-70
2022/08/30 10:49:59;;;;;;;8.25;6.25;;;;;;;25.67;59.14;95779.73;1731958;83;21122;-69
2022/08/30 10:52:55;;;;;;;8.35;6.58;;;;;;;25.72;59.61;95778.05;1731743;83;21110;-66
2022/08/30 10:55:37;;;;;;;7.80;6.40;;;;;;;25.72;59.06;95773.14;1728682;83;21520;-69
2022/08/30 10:58:05;;;;;;;8.23;6.58;;;;;;;25.86;58.86;95777.05;1705300;83;21042;-70
2022/08/30 11:00:59;;;;;;;7.03;6.12;;;;;;;26.01;58.66;95769.10;1731839;83;21055;-70
2022/08/30 11:03:50;;;;;;;8.48;5.87;;;;;;;26.42;57.36;95763.64;1732173;82;21532;-69
2022/08/30 11:06:48;;;;;;;8.15;6.33;;;;;;;26.82;54.58;95765.05;1732256;83;21062;-70
2022/08/30 11:09:41;;;;;;;15.53;6.70;;;;;;;26.87;55.41;95762.84;1732164;83;21461;-70
2022/08/30 11:12:25;;;;;;;7.85;6.30;;;;;;;27.15;56.68;95762.80;1732241;83;21070;-71
2022/08/30 11:14:53;;;;;;;7.67;6.87;;;;;;;26.91;54.62;95767.89;1732299;82;21026;-70
2022/08/30 11:17:40;;;;;;;9.03;7.58;;;;;;;26.61;55.23;95752.73;1732251;83;21524;-70
2022/08/30 11:20:22;;;;;;;11.03;8.33;;;;;;;26.27;55.32;95763.00;1723838;83;21038;-70
2022/08/30 11:23:11;;;;;;;11.08;8.10;;;;;;;25.91;54.57;95755.92;1731565;83;21605;-71
2022/08/30 11:26:01;;;;;;;13.85;8.50;;;;;;;25.52;54.80;95753.88;1731723;83;21485;-71
2022/08/30 11:28:45;;;;;;;12.35;7.80;;;;;;;25.17;55.20;95755.17;1732088;83;21039;-70
2022/08/30 11:31:24;;;;;;;30.10;8.50;;;;;;;24.85;57.19;95762.43;1732075;83;21095;-70
2022/08/30 11:33:55;;;;;;;10.15;6.85;;;;;;;24.60;60.25;95758.80;1706545;83;21071;-70
2022/08/30 11:36:37;;;;;;;11.50;6.78;;;;;;;24.41;62.14;95751.11;1701032;84;21010;-70
2022/08/30 11:39:07;;;;;;;12.23;7.55;;;;;;;24.25;62.89;95763.11;1700752;84;21102;-71
2022/08/30 11:41:46;;;;;;;14.50;6.67;;;;;;;24.11;62.51;95767.61;1701246;84;21047;-70
2022/08/30 11:44:27;;;;;;;9.55;6.47;;;;;;;24.09;64.32;95769.58;1701370;84;21019;-70
2022/08/30 11:46:59;;;;;;;14.85;7.97;;;;;;;24.03;63.24;95770.47;1701272;84;21039;-70
2022/08/30 11:49:50;;;;;;;10.32;7.17;;;;;;;24.10;61.60;95774.47;1701078;84;21043;-70
2022/08/30 11:52:25;;;;;;;10.43;7.45;;;;;;;24.14;61.04;95769.23;1699811;84;21023;-70
2022/08/30 11:55:25;;;;;;;12.35;7.40;;;;;;;24.34;63.11;95775.47;1701162;84;21039;-70